createdAt,value
2019-04-21T00:01:26.514Z,10.50
2019-04-21T00:03:57.525Z,10.28
2019-04-21T00:06:43.947Z,9.85
2019-04-21T00:09:11.433Z,10.05
2019-04-21T00:11:35.593Z,11.57
2019-04-21T00:13:56.216Z,9.33
2019-04-21T00:16:17.197Z,9.75
2019-04-21T00:18:53.443Z,9.65
2019-04-21T00:21:23.243Z,9.63
2019-04-21T00:23:56.199Z,9.18
2019-04-21T00:26:29.067Z,9.25
2019-04-21T00:28:59.474Z,9.70
2019-04-21T00:31:21.811Z,9.85
2019-04-21T00:33:35.603Z,9.13
2019-04-21T00:36:09.294Z,10.13
2019-04-21T00:38:58.810Z,9.58
2019-04-21T00:41:19.064Z,9.50
2019-04-21T00:43:41.266Z,9.18
2019-04-21T00:46:03.251Z,10.15
2019-04-21T00:48:43.982Z,10.05
2019-04-21T00:51:25.192Z,10.63
2019-04-21T00:53:51.149Z,9.60
2019-04-21T00:56:15.598Z,9.40
2019-04-21T00:58:48.476Z,9.30
2019-04-21T01:01:12.158Z,9.18
2019-04-21T01:03:46.240Z,8.75
2019-04-21T01:06:11.415Z,9.43
2019-04-21T01:08:36.024Z,10.05
2019-04-21T01:11:02.093Z,11.80
2019-04-21T01:13:36.262Z,12.03
2019-04-21T01:16:08.542Z,10.78
2019-04-21T01:18:31.331Z,9.80
2019-04-21T01:20:37.537Z,9.05
2019-04-21T01:23:04.341Z,9.58
2019-04-21T01:25:39.341Z,9.55
2019-04-21T01:28:18.873Z,10.38
2019-04-21T01:30:50.239Z,9.20
2019-04-21T01:33:21.594Z,10.10
2019-04-21T01:35:44.057Z,9.80
2019-04-21T01:38:14.308Z,11.28
2019-04-21T01:41:00.643Z,9.23
2019-04-21T01:43:11.527Z,9.05
2019-04-21T01:45:36.985Z,9.13
2019-04-21T01:48:01.187Z,9.03
2019-04-21T01:50:36.546Z,9.08
2019-04-21T01:53:15.576Z,9.08
2019-04-21T01:55:54.377Z,8.28
2019-04-21T01:58:19.377Z,8.13
2019-04-21T02:00:51.874Z,7.47
2019-04-21T02:03:45.387Z,8.40
2019-04-21T02:05:59.654Z,8.00
2019-04-21T02:08:18.247Z,8.00
2019-04-21T02:10:54.919Z,7.45
2019-04-21T02:13:16.873Z,7.58
2019-04-21T02:15:54.427Z,7.92
2019-04-21T02:18:13.473Z,7.92
2019-04-21T02:20:31.756Z,7.87
2019-04-21T02:25:40.014Z,8.10
2019-04-21T02:28:14.814Z,8.38
2019-04-21T02:30:56.918Z,7.75
2019-04-21T02:33:18.638Z,7.97
2019-04-21T02:38:30.642Z,7.78
2019-04-21T02:40:51.491Z,8.58
2019-04-21T02:45:43.322Z,8.28
2019-04-21T02:55:30.513Z,8.63
2019-04-21T03:00:36.710Z,8.03
2019-04-21T03:03:13.583Z,7.60
2019-04-21T03:05:58.712Z,8.53
2019-04-21T03:10:59.212Z,7.62
2019-04-21T03:13:29.835Z,7.97
2019-04-21T03:15:59.195Z,8.00
2019-04-21T03:18:26.392Z,8.10
2019-04-21T03:20:54.918Z,7.90
2019-04-21T03:25:51.986Z,8.75
2019-04-21T03:28:20.131Z,8.03
2019-04-21T03:31:11.581Z,8.10
2019-04-21T03:38:16.645Z,7.60
2019-04-21T03:40:37.903Z,7.92
2019-04-21T03:43:07.874Z,7.80
2019-04-21T03:48:05.217Z,7.85
2019-04-21T03:50:33.770Z,8.48
2019-04-21T03:53:06.838Z,7.95
2019-04-21T04:03:49.199Z,7.33
2019-04-21T04:06:03.916Z,7.28
2019-04-21T04:08:36.671Z,7.25
2019-04-21T04:13:34.183Z,7.03
2019-04-21T04:18:23.453Z,7.50
2019-04-21T04:23:10.219Z,7.10
2019-04-21T04:25:37.477Z,7.22
2019-04-21T04:30:43.654Z,7.40
2019-04-21T04:33:12.856Z,7.28
2019-04-21T04:35:48.558Z,6.97
2019-04-21T04:38:07.023Z,5.00
2019-04-21T04:40:48.941Z,7.50
2019-04-21T04:43:19.226Z,6.28
2019-04-21T04:53:12.032Z,6.45
2019-04-21T04:55:39.091Z,6.30
2019-04-21T05:03:05.521Z,7.15
2019-04-21T05:06:32.698Z,6.47
2019-04-21T05:08:52.946Z,6.47
2019-04-21T05:11:20.671Z,5.60
2019-04-21T05:13:51.168Z,6.05
2019-04-21T05:16:13.758Z,5.72
2019-04-21T05:18:36.752Z,6.30
2019-04-21T05:21:18.886Z,6.12
2019-04-21T05:23:18.101Z,5.70
2019-04-21T05:25:42.410Z,5.53
2019-04-21T05:28:08.836Z,5.85
2019-04-21T05:31:09.096Z,8.43
2019-04-21T05:33:53.234Z,5.78
2019-04-21T05:36:37.923Z,5.33
2019-04-21T05:39:18.821Z,5.97
2019-04-21T05:41:41.988Z,5.95
2019-04-21T05:44:27.994Z,5.97
2019-04-21T05:47:05.954Z,6.35
2019-04-21T05:49:26.694Z,5.45
2019-04-21T05:51:55.751Z,5.42
2019-04-21T05:54:52.858Z,6.50
2019-04-21T05:56:59.759Z,4.40
2019-04-21T05:59:29.343Z,5.47
2019-04-21T06:02:07.457Z,5.35
2019-04-21T06:04:38.464Z,5.80
2019-04-21T06:07:00.362Z,5.67
2019-04-21T06:09:27.413Z,5.62
2019-04-21T06:11:51.413Z,5.83
2019-04-21T06:14:21.733Z,5.40
2019-04-21T06:16:55.647Z,5.05
2019-04-21T06:19:29.303Z,5.65
2019-04-21T06:21:44.764Z,5.78
2019-04-21T06:24:15.997Z,5.53
2019-04-21T06:27:00.134Z,4.87
2019-04-21T06:29:18.506Z,5.62
2019-04-21T06:34:15.183Z,5.65
2019-04-21T06:39:41.654Z,5.53
2019-04-21T06:41:49.173Z,6.95
2019-04-21T06:46:43.783Z,5.85
2019-04-21T06:49:28.136Z,5.60
2019-04-21T06:51:38.952Z,5.75
2019-04-21T06:54:09.174Z,5.83
2019-04-21T06:59:06.332Z,5.22
2019-04-21T07:01:36.051Z,5.97
2019-04-21T07:06:30.575Z,5.70
2019-04-21T07:09:10.233Z,6.35
2019-04-21T07:11:21.406Z,6.83
2019-04-21T07:13:54.711Z,6.60
2019-04-21T07:16:25.716Z,6.40
2019-04-21T07:19:01.376Z,5.83
2019-04-21T07:21:23.508Z,6.65
2019-04-21T07:23:57.211Z,5.83
2019-04-21T07:26:19.419Z,6.10
2019-04-21T07:28:51.044Z,5.97
2019-04-21T07:31:18.495Z,7.00
2019-04-21T07:33:53.967Z,5.62
2019-04-21T07:36:20.025Z,6.80
2019-04-21T07:38:41.205Z,7.42
2019-04-21T07:41:05.599Z,6.62
2019-04-21T07:43:30.022Z,6.50
2019-04-21T07:45:58.526Z,6.55
2019-04-21T07:48:37.715Z,5.80
2019-04-21T07:51:18.834Z,6.20
2019-04-21T07:56:09.447Z,5.62
2019-04-21T07:58:53.907Z,6.58
2019-04-21T08:03:46.799Z,5.35
2019-04-21T08:06:22.790Z,6.42
2019-04-21T08:08:40.741Z,8.45
2019-04-21T08:11:10.874Z,35.08
2019-04-21T08:13:51.796Z,12.10
2019-04-21T08:16:10.567Z,7.72
2019-04-21T08:21:04.353Z,7.17
2019-04-21T08:23:31.924Z,7.40
2019-04-21T08:28:35.500Z,7.58
2019-04-21T08:30:55.474Z,7.60
2019-04-21T08:33:33.718Z,7.30
2019-04-21T08:36:14.437Z,7.28
2019-04-21T08:38:20.328Z,6.30
2019-04-21T08:40:59.069Z,6.53
2019-04-21T08:43:27.729Z,7.25
2019-04-21T08:45:57.267Z,8.00
2019-04-21T08:48:18.276Z,7.22
2019-04-21T08:50:44.267Z,8.20
2019-04-21T08:53:14.646Z,7.62
2019-04-21T08:55:49.276Z,7.80
2019-04-21T08:58:25.663Z,7.10
2019-04-21T09:01:01.084Z,7.22
2019-04-21T09:03:43.334Z,7.33
2019-04-21T09:06:17.489Z,12.70
2019-04-21T09:08:42.279Z,9.58
2019-04-21T09:11:09.730Z,8.40
2019-04-21T09:13:37.206Z,8.00
2019-04-21T09:15:59.431Z,7.37
2019-04-21T09:18:24.092Z,6.67
2019-04-21T09:20:58.554Z,6.47
2019-04-21T09:23:25.630Z,7.00
2019-04-21T09:25:58.833Z,6.65
2019-04-21T09:28:24.129Z,7.17
2019-04-21T09:30:41.617Z,6.50
2019-04-21T09:33:02.385Z,6.40
2019-04-21T09:35:29.218Z,6.30
2019-04-21T09:38:03.010Z,6.35
2019-04-21T09:40:30.111Z,6.08
2019-04-21T09:42:57.482Z,6.95
2019-04-21T09:45:22.535Z,11.93
2019-04-21T09:47:59.081Z,6.55
2019-04-21T09:50:19.856Z,6.10
2019-04-21T09:52:54.199Z,6.12
2019-04-21T09:55:19.600Z,7.12
2019-04-21T09:57:51.598Z,8.03
2019-04-21T10:00:18.467Z,6.22
2019-04-21T10:02:51.629Z,6.22
2019-04-21T10:05:09.991Z,6.95
2019-04-21T10:07:40.528Z,6.20
2019-04-21T10:10:06.058Z,6.50
2019-04-21T10:12:33.554Z,6.05
2019-04-21T10:14:59.945Z,5.87
2019-04-21T10:17:28.115Z,5.72
2019-04-21T10:19:55.092Z,6.08
2019-04-21T10:22:21.454Z,5.67
2019-04-21T10:24:48.795Z,5.70
2019-04-21T10:27:15.341Z,5.42
2019-04-21T10:29:44.558Z,6.00
2019-04-21T10:32:09.551Z,6.20
2019-04-21T10:34:36.793Z,5.90
2019-04-21T10:37:03.402Z,6.37
2019-04-21T10:39:29.663Z,7.90
2019-04-21T10:41:57.212Z,6.50
2019-04-21T10:44:23.572Z,5.80
2019-04-21T10:46:51.831Z,5.47
2019-04-21T10:49:18.983Z,5.78
2019-04-21T10:51:46.637Z,6.83
2019-04-21T10:54:13.691Z,6.28
2019-04-21T10:56:43.435Z,5.70
2019-04-21T10:59:08.246Z,6.20
2019-04-21T11:01:34.770Z,6.80
2019-04-21T11:04:03.083Z,6.40
2019-04-21T11:06:30.870Z,6.83
2019-04-21T11:08:59.576Z,5.75
2019-04-21T11:11:25.928Z,6.03
2019-04-21T11:13:52.627Z,5.92
2019-04-21T11:16:19.237Z,6.00
2019-04-21T11:18:46.104Z,5.80
2019-04-21T11:21:13.278Z,6.35
2019-04-21T11:23:40.477Z,11.15
2019-04-21T11:26:07.288Z,5.70
2019-04-21T11:28:34.733Z,5.28
2019-04-21T11:31:02.593Z,7.33
2019-04-21T11:33:29.097Z,5.10
2019-04-21T11:35:55.475Z,5.85
2019-04-21T11:38:51.298Z,5.42
2019-04-21T11:41:03.930Z,7.70
2019-04-21T11:43:30.812Z,5.40
2019-04-21T11:45:58.145Z,5.87
2019-04-21T11:48:26.269Z,5.75
2019-04-21T11:50:53.209Z,5.37
2019-04-21T11:53:20.933Z,5.80
2019-04-21T11:55:51.718Z,6.40
2019-04-21T11:58:18.073Z,6.45
2019-04-21T12:00:47.474Z,5.60
2019-04-21T12:03:15.360Z,5.28
2019-04-21T12:05:43.476Z,6.70
2019-04-21T12:08:21.195Z,5.47
2019-04-21T12:10:37.891Z,5.10
2019-04-21T12:13:07.258Z,4.50
2019-04-21T12:15:32.769Z,4.58
2019-04-21T12:17:59.629Z,4.75
2019-04-21T12:20:26.438Z,4.55
2019-04-21T12:22:52.999Z,4.80
2019-04-21T12:25:27.351Z,5.47
2019-04-21T12:27:54.169Z,4.80
2019-04-21T12:30:21.831Z,3.90
2019-04-21T12:32:50.100Z,3.98
2019-04-21T12:35:17.864Z,4.85
2019-04-21T12:37:44.819Z,3.83
2019-04-21T12:40:12.595Z,3.75
2019-04-21T12:42:41.716Z,3.98
2019-04-21T12:45:09.803Z,3.93
2019-04-21T12:47:37.692Z,3.70
2019-04-21T12:50:06.787Z,3.80
2019-04-21T12:52:33.635Z,3.70
2019-04-21T12:55:00.019Z,4.10
2019-04-21T12:57:30.219Z,4.22
2019-04-21T12:59:55.402Z,4.20
2019-04-21T13:02:21.974Z,4.20
2019-04-21T13:04:49.715Z,3.85
2019-04-21T13:07:17.393Z,3.77
2019-04-21T13:09:44.343Z,3.55
2019-04-21T13:12:11.149Z,3.67
2019-04-21T13:14:37.905Z,3.60
2019-04-21T13:17:05.649Z,3.33
2019-04-21T13:19:31.830Z,3.37
2019-04-21T13:21:58.276Z,3.70
2019-04-21T13:24:24.447Z,3.87
2019-04-21T13:26:55.963Z,3.42
2019-04-21T13:29:18.942Z,3.20
2019-04-21T13:31:45.057Z,3.72
2019-04-21T13:34:11.482Z,3.83
2019-04-21T13:36:37.573Z,4.90
2019-04-21T13:39:38.010Z,4.33
2019-04-21T13:41:47.492Z,3.90
2019-04-21T13:44:15.697Z,3.00
2019-04-21T13:46:43.006Z,2.85
2019-04-21T13:49:11.581Z,2.83
2019-04-21T13:51:38.574Z,2.50
2019-04-21T13:54:04.982Z,2.80
2019-04-21T13:56:32.345Z,2.60
2019-04-21T13:59:00.019Z,3.47
2019-04-21T14:01:27.651Z,3.75
2019-04-21T14:03:53.908Z,2.67
2019-04-21T14:06:20.454Z,2.55
2019-04-21T14:08:48.652Z,2.55
2019-04-21T14:11:15.562Z,2.77
2019-04-21T14:13:42.572Z,2.58
2019-04-21T14:16:09.698Z,2.95
2019-04-21T14:18:36.571Z,3.30
2019-04-21T14:21:03.375Z,3.05
2019-04-21T14:23:36.015Z,3.00
2019-04-21T14:25:57.922Z,2.85
2019-04-21T14:28:24.202Z,3.00
2019-04-21T14:30:50.581Z,2.95
2019-04-21T14:33:18.198Z,3.55
2019-04-21T14:35:45.111Z,3.22
2019-04-21T14:38:11.325Z,3.25
2019-04-21T14:40:38.850Z,3.08
2019-04-21T14:43:05.925Z,2.85
2019-04-21T14:45:34.638Z,3.05
2019-04-21T14:48:03.267Z,3.08
2019-04-21T14:50:48.433Z,3.20
2019-04-21T14:53:17.870Z,3.00
2019-04-21T14:55:45.737Z,2.80
2019-04-21T14:58:12.850Z,3.00
2019-04-21T15:00:45.971Z,3.30
2019-04-21T15:03:12.182Z,2.75
2019-04-21T15:05:39.687Z,2.80
2019-04-21T15:08:06.863Z,3.15
2019-04-21T15:10:33.996Z,3.15
2019-04-21T15:13:01.644Z,3.05
2019-04-21T15:15:27.982Z,2.80
2019-04-21T15:17:55.614Z,2.75
2019-04-21T15:20:23.836Z,3.02
2019-04-21T15:22:50.484Z,2.92
2019-04-21T15:25:16.758Z,3.05
2019-04-21T15:27:43.151Z,3.33
2019-04-21T15:30:10.935Z,5.10
2019-04-21T15:32:37.343Z,5.17
2019-04-21T15:35:04.383Z,3.20
2019-04-21T15:37:31.649Z,2.70
2019-04-21T15:39:58.538Z,3.15
2019-04-21T15:42:26.410Z,2.65
2019-04-21T15:44:52.682Z,2.50
2019-04-21T15:47:19.908Z,3.50
2019-04-21T15:50:01.175Z,3.27
2019-04-21T15:52:22.357Z,2.95
2019-04-21T15:54:50.294Z,3.08
2019-04-21T15:57:19.684Z,3.00
2019-04-21T15:59:50.734Z,3.22
2019-04-21T16:02:36.926Z,3.50
2019-04-21T16:05:06.632Z,4.37
2019-04-21T16:07:34.009Z,3.70
2019-04-21T16:10:02.030Z,3.60
2019-04-21T16:12:29.777Z,3.42
2019-04-21T16:14:56.514Z,4.30
2019-04-21T16:17:23.531Z,3.33
2019-04-21T16:19:52.073Z,3.58
2019-04-21T16:22:18.831Z,2.87
2019-04-21T16:24:46.070Z,2.90
2019-04-21T16:27:13.334Z,3.52
2019-04-21T16:29:39.579Z,3.00
2019-04-21T16:32:06.957Z,3.55
2019-04-21T16:34:42.745Z,2.55
2019-04-21T16:37:01.537Z,2.55
2019-04-21T16:39:29.457Z,2.90
2019-04-21T16:41:56.335Z,3.02
2019-04-21T16:44:23.158Z,2.70
2019-04-21T16:46:49.650Z,2.90
2019-04-21T16:49:15.946Z,2.50
2019-04-21T16:51:42.509Z,3.22
2019-04-21T16:54:10.698Z,2.83
2019-04-21T16:56:39.645Z,2.72
2019-04-21T16:59:08.542Z,2.60
2019-04-21T17:01:36.362Z,2.50
2019-04-21T17:04:04.486Z,2.33
2019-04-21T17:06:31.205Z,2.72
2019-04-21T17:08:59.018Z,2.40
2019-04-21T17:11:29.454Z,2.77
2019-04-21T17:13:54.231Z,2.67
2019-04-21T17:16:49.511Z,2.83
2019-04-21T17:19:00.574Z,2.80
2019-04-21T17:21:19.270Z,3.15
2019-04-21T17:23:46.454Z,2.72
2019-04-21T17:26:13.216Z,2.65
2019-04-21T17:28:40.624Z,6.90
2019-04-21T17:31:08.474Z,3.90
2019-04-21T17:33:35.508Z,2.62
2019-04-21T17:36:03.021Z,2.65
2019-04-21T17:38:30.126Z,2.62
2019-04-21T17:41:09.328Z,2.50
2019-04-21T17:43:25.776Z,2.80
2019-04-21T17:45:53.214Z,3.50
2019-04-21T17:48:21.456Z,3.35
2019-04-21T17:50:56.626Z,3.65
2019-04-21T17:53:38.200Z,3.72
2019-04-21T17:56:19.414Z,3.12
2019-04-21T17:58:49.284Z,3.90
2019-04-21T18:01:19.371Z,3.45
2019-04-21T18:03:56.926Z,2.63
2019-04-21T18:06:05.289Z,3.15
2019-04-21T18:08:43.050Z,3.35
2019-04-21T18:11:01.205Z,3.40
2019-04-21T18:13:22.674Z,8.70
2019-04-21T18:15:55.805Z,7.17
2019-04-21T18:18:14.916Z,4.17
2019-04-21T18:20:46.157Z,3.25
2019-04-21T18:23:43.915Z,3.52
2019-04-21T18:26:07.129Z,3.25
2019-04-21T18:28:28.488Z,3.70
2019-04-21T18:30:56.769Z,3.75
2019-04-21T18:33:29.936Z,3.35
2019-04-21T18:35:58.587Z,3.15
2019-04-21T18:39:00.149Z,7.42
2019-04-21T18:41:13.358Z,5.15
2019-04-21T18:44:21.292Z,5.30
2019-04-21T18:46:55.575Z,5.78
2019-04-21T18:49:06.745Z,10.25
2019-04-21T18:51:58.681Z,9.85
2019-04-21T18:54:36.026Z,6.10
2019-04-21T18:56:57.629Z,6.27
2019-04-21T18:59:14.427Z,5.53
2019-04-21T19:01:49.821Z,4.12
2019-04-21T19:04:14.361Z,4.03
2019-04-21T19:06:51.672Z,5.12
2019-04-21T19:09:32.523Z,3.40
2019-04-21T19:11:53.486Z,3.40
2019-04-21T19:21:46.998Z,3.15
2019-04-21T19:24:25.327Z,3.20
2019-04-21T19:26:52.105Z,3.20
2019-04-21T19:29:22.789Z,3.40
2019-04-21T19:31:44.684Z,3.77
2019-04-21T19:34:03.502Z,3.40
2019-04-21T19:36:21.549Z,3.60
2019-04-21T19:38:58.283Z,3.80
2019-04-21T19:41:32.480Z,3.55
2019-04-21T19:44:02.689Z,3.50
2019-04-21T19:46:28.081Z,3.70
2019-04-21T19:49:05.509Z,3.27
2019-04-21T19:51:24.866Z,3.42
2019-04-21T19:53:50.441Z,3.62
2019-04-21T19:56:05.960Z,3.70
2019-04-21T19:58:38.051Z,3.58
2019-04-21T20:01:01.602Z,3.65
2019-04-21T20:03:28.541Z,3.80
2019-04-21T20:06:06.009Z,10.45
2019-04-21T20:08:36.459Z,15.98
2019-04-21T20:11:10.430Z,4.37
2019-04-21T20:13:56.953Z,3.90
2019-04-21T20:16:10.676Z,3.45
2019-04-21T20:18:26.070Z,3.17
2019-04-21T20:20:45.889Z,3.92
2019-04-21T20:23:18.054Z,3.37
2019-04-21T20:25:48.476Z,3.65
2019-04-21T20:28:17.354Z,3.47
2019-04-21T20:30:56.036Z,3.55
2019-04-21T20:33:42.897Z,3.70
2019-04-21T20:38:15.671Z,3.40
2019-04-21T20:40:44.090Z,3.30
2019-04-21T20:43:16.505Z,3.52
2019-04-21T20:45:49.420Z,3.55
2019-04-21T20:47:56.150Z,3.67
2019-04-21T20:50:33.347Z,3.87
2019-04-21T20:53:06.014Z,3.58
2019-04-21T20:55:29.269Z,3.95
2019-04-21T20:57:58.033Z,4.33
2019-04-21T21:00:30.144Z,3.80
2019-04-21T21:03:04.196Z,4.20
2019-04-21T21:05:27.479Z,3.92
2019-04-21T21:08:05.143Z,4.33
2019-04-21T21:10:31.540Z,4.30
2019-04-21T21:12:57.513Z,4.60
2019-04-21T21:15:18.335Z,4.00
2019-04-21T21:18:01.529Z,4.17
2019-04-21T21:20:27.873Z,3.80
2019-04-21T21:22:47.820Z,3.92
2019-04-21T21:25:25.838Z,4.03
2019-04-21T21:27:42.052Z,4.15
2019-04-21T21:30:14.589Z,3.80
2019-04-21T21:32:42.882Z,3.80
2019-04-21T21:35:13.145Z,4.30
2019-04-21T21:37:41.031Z,3.75
2019-04-21T21:40:10.654Z,3.80
2019-04-21T21:42:25.687Z,3.83
2019-04-21T21:44:50.474Z,3.40
2019-04-21T21:47:31.974Z,3.80
2019-04-21T21:49:55.439Z,3.80
2019-04-21T21:52:22.198Z,3.80
2019-04-21T21:54:40.014Z,3.20
2019-04-21T21:57:06.569Z,3.72
2019-04-21T21:59:36.479Z,2.98
2019-04-21T22:02:03.146Z,5.33
2019-04-21T22:04:32.445Z,11.60
2019-04-21T22:07:04.644Z,4.05
2019-04-21T22:09:26.416Z,3.70
2019-04-21T22:11:56.701Z,3.85
2019-04-21T22:14:25.953Z,3.60
2019-04-21T22:17:07.637Z,3.65
2019-04-21T22:19:36.727Z,3.72
2019-04-21T22:22:07.727Z,3.58
2019-04-21T22:24:36.592Z,3.75
2019-04-21T22:26:43.334Z,3.45
2019-04-21T22:29:09.756Z,3.80
2019-04-21T22:31:39.246Z,3.77
2019-04-21T22:34:07.567Z,3.60
2019-04-21T22:36:44.457Z,3.80
2019-04-21T22:39:20.777Z,4.10
2019-04-21T22:41:40.516Z,4.00
2019-04-21T22:44:00.959Z,3.83
2019-04-21T22:46:28.584Z,3.85
2019-04-21T22:49:00.909Z,3.35
2019-04-21T22:51:30.220Z,4.10
2019-04-21T22:53:54.301Z,4.00
2019-04-21T22:56:25.582Z,3.52
2019-04-21T22:58:48.301Z,3.83
2019-04-21T23:01:20.109Z,3.75
2019-04-21T23:03:50.238Z,3.35
2019-04-21T23:06:19.267Z,3.33
2019-04-21T23:08:43.578Z,3.20
2019-04-21T23:11:11.924Z,3.50
2019-04-21T23:13:38.636Z,3.45
2019-04-21T23:16:07.571Z,3.50
2019-04-21T23:18:46.376Z,3.17
2019-04-21T23:21:16.331Z,3.22
2019-04-21T23:23:54.104Z,3.17
2019-04-21T23:26:18.244Z,3.10
2019-04-21T23:28:46.681Z,3.30
2019-04-21T23:31:11.102Z,3.02
2019-04-21T23:33:23.866Z,3.55
2019-04-21T23:36:00.972Z,3.00
2019-04-21T23:38:26.573Z,2.77
2019-04-21T23:40:54.298Z,3.52
2019-04-21T23:43:20.599Z,3.98
2019-04-21T23:45:45.314Z,3.55
2019-04-21T23:48:27.161Z,3.58
2019-04-21T23:50:50.450Z,3.40
2019-04-21T23:53:07.877Z,3.30
2019-04-21T23:55:35.001Z,3.92
2019-04-21T23:58:07.013Z,3.40
